VHWLE AYPY-YSSY
Flight info
| Callsign | VHWLE |
|---|---|
| Flight time | N/A |
| Altitude | 41000 |
| Route | LOTGU1 LOTGU DCT APISO B462 MK H652 BOREE |
| Aircraft | C700/M-SBDGHM1RWXY/LB2 |
Departure
| Time | 2026-04-25 00:18 |
|---|---|
| Airport | Port Moresby Jacksons International Airport (AYPY) |
Arrival
| Time | N/A |
|---|---|
| Airport | Sydney Kingsford Smith International Airport (YSSY) |
| Time | Latitude | Longitude | Altitude | Speed | Heading |
|---|---|---|---|---|---|
| 2026-04-24 23:13 | -9.44569 | 147.21642 | 128 ft | 0 kts | 236° |
| 2026-04-25 00:12 | -9.44569 | 147.21641 | 131 ft | 0 kts | 239° |
| 2026-04-25 00:13 | -9.44565 | 147.21636 | 127 ft | 1 kts | 320° |
| 2026-04-25 00:13 | -9.44557 | 147.21643 | 126 ft | 3 kts | 69° |
| 2026-04-25 00:13 | -9.44537 | 147.21663 | 125 ft | 5 kts | 350° |
| 2026-04-25 00:13 | -9.44477 | 147.21672 | 127 ft | 14 kts | 14° |
| 2026-04-25 00:14 | -9.44397 | 147.21709 | 127 ft | 15 kts | 60° |
| 2026-04-25 00:14 | -9.44312 | 147.21685 | 121 ft | 18 kts | 328° |
| 2026-04-25 00:14 | -9.44175 | 147.21602 | 122 ft | 27 kts | 331° |
| 2026-04-25 00:14 | -9.43987 | 147.21485 | 117 ft | 36 kts | 328° |
| 2026-04-25 00:15 | -9.43751 | 147.21339 | 111 ft | 42 kts | 328° |
| 2026-04-25 00:15 | -9.43502 | 147.21186 | 106 ft | 39 kts | 329° |
| 2026-04-25 00:15 | -9.43351 | 147.21092 | 106 ft | 24 kts | 332° |
| 2026-04-25 00:15 | -9.43256 | 147.21131 | 105 ft | 18 kts | 60° |
| 2026-04-25 00:16 | -9.43187 | 147.21242 | 105 ft | 14 kts | 58° |
| 2026-04-25 00:16 | -9.43123 | 147.21352 | 105 ft | 16 kts | 60° |
| 2026-04-25 00:16 | -9.43161 | 147.21436 | 107 ft | 19 kts | 149° |
| 2026-04-25 00:16 | -9.43209 | 147.21466 | 106 ft | 0 kts | 148° |
| 2026-04-25 00:17 | -9.43223 | 147.21475 | 106 ft | 14 kts | 148° |
| 2026-04-25 00:17 | -9.43592 | 147.21700 | 107 ft | 112 kts | 149° |
| 2026-04-25 00:18 | -9.44505 | 147.22257 | 222 ft | 191 kts | 149° |
| 2026-04-25 00:18 | -9.45765 | 147.23001 | 958 ft | 221 kts | 149° |
| 2026-04-25 00:18 | -9.47188 | 147.23927 | 872 ft | 258 kts | 145° |
| 2026-04-25 00:18 | -9.48747 | 147.24966 | 1072 ft | 279 kts | 148° |
| 2026-04-25 00:19 | -9.50453 | 147.25948 | 1464 ft | 286 kts | 151° |
| 2026-04-25 00:19 | -9.52352 | 147.26751 | 1566 ft | 298 kts | 160° |
| 2026-04-25 00:19 | -9.54230 | 147.27354 | 2025 ft | 278 kts | 156° |
| 2026-04-25 00:19 | -9.55708 | 147.28503 | 2458 ft | 275 kts | 143° |
| 2026-04-25 00:20 | -9.57545 | 147.29103 | 2919 ft | 281 kts | 168° |
| 2026-04-25 00:20 | -9.59406 | 147.29330 | 3958 ft | 265 kts | 176° |
| 2026-04-25 00:20 | -9.61273 | 147.29256 | 4458 ft | 271 kts | 180° |
| 2026-04-25 00:20 | -9.63076 | 147.29696 | 4913 ft | 270 kts | 156° |
| 2026-04-25 00:21 | -9.64951 | 147.29924 | 5327 ft | 267 kts | 174° |
| 2026-04-25 00:21 | -9.66875 | 147.29755 | 2834 ft | 341 kts | 193° |
| 2026-04-25 00:21 | -9.67636 | 147.29931 | 6052 ft | 60 kts | 146° |
| 2026-04-25 00:21 | -9.67960 | 147.30108 | 4048 ft | 59 kts | 233° |
| 2026-04-25 00:22 | -9.68162 | 147.29701 | -5 ft | 0 kts | 127° |
| 2026-04-25 00:22 | -27.54542 | 153.15541 | 3500 ft | 160 kts | 310° |
| 2026-04-25 00:23 | -27.54455 | 153.15425 | 3483 ft | 162 kts | 309° |
| 2026-04-25 00:23 | -27.54230 | 153.15127 | 3430 ft | 171 kts | 308° |
| 2026-04-25 00:23 | -27.53560 | 153.13982 | 3275 ft | 183 kts | 296° |
| 2026-04-25 00:23 | -27.53020 | 153.12528 | 2511 ft | 217 kts | 289° |
| 2026-04-25 00:24 | -27.52399 | 153.11017 | 2170 ft | 192 kts | 312° |
| 2026-04-25 00:24 | -27.51630 | 153.10043 | 2586 ft | 169 kts | 320° |
| 2026-04-25 00:24 | -27.51068 | 153.08857 | 2339 ft | 165 kts | 297° |
| 2026-04-25 00:24 | -27.50548 | 153.07856 | 2646 ft | 144 kts | 309° |
| 2026-04-25 00:25 | -27.50003 | 153.06758 | 1709 ft | 194 kts | 280° |
| 2026-04-25 00:25 | -27.49906 | 153.05219 | 1587 ft | 167 kts | 274° |
| 2026-04-25 00:25 | -27.50014 | 153.04158 | 1605 ft | 151 kts | 231° |
| 2026-04-25 00:25 | -27.51271 | 153.03674 | 641 ft | 192 kts | 174° |
| 2026-04-25 00:26 | -27.52185 | 153.04416 | 800 ft | 164 kts | 116° |
| 2026-04-25 00:26 | -27.52755 | 153.05162 | 656 ft | 164 kts | 162° |
| 2026-04-25 00:26 | -27.53603 | 153.05129 | 749 ft | 150 kts | 209° |
| 2026-04-25 00:26 | -27.54363 | 153.04664 | 1325 ft | 127 kts | 189° |
| 2026-04-25 00:27 | -27.55076 | 153.04943 | 641 ft | 157 kts | 120° |
| 2026-04-25 00:27 | -27.55142 | 153.05080 | 376 ft | 0 kts | 107° |
| 2026-04-25 00:27 | -27.54542 | 153.15541 | 3500 ft | 160 kts | 310° |
| 2026-04-25 00:27 | -27.54512 | 153.15502 | 3499 ft | 167 kts | 310° |
| 2026-04-25 00:28 | -27.53697 | 153.14441 | 3123 ft | 171 kts | 310° |
| 2026-04-25 00:28 | -27.52941 | 153.13428 | 2749 ft | 170 kts | 309° |
| 2026-04-25 00:28 | -27.52181 | 153.12423 | 2647 ft | 164 kts | 310° |
| 2026-04-25 00:28 | -27.51421 | 153.11485 | 2636 ft | 160 kts | 312° |
| 2026-04-25 00:29 | -27.50594 | 153.10659 | 2617 ft | 158 kts | 320° |
| 2026-04-25 00:29 | -27.49692 | 153.09920 | 2471 ft | 164 kts | 326° |
| 2026-04-25 00:29 | -27.48665 | 153.09266 | 2212 ft | 175 kts | 334° |
| 2026-04-25 00:29 | -27.47526 | 153.08838 | 1927 ft | 168 kts | 347° |
| 2026-04-25 00:30 | -27.46383 | 153.08761 | 1617 ft | 163 kts | 3° |
| 2026-04-25 00:30 | -27.45284 | 153.09012 | 1297 ft | 160 kts | 16° |
| 2026-04-25 00:30 | -27.44262 | 153.09466 | 976 ft | 156 kts | 24° |
| 2026-04-25 00:30 | -27.43326 | 153.10039 | 786 ft | 149 kts | 30° |
| 2026-04-25 00:31 | -27.42454 | 153.10601 | 623 ft | 140 kts | 27° |
| 2026-04-25 00:31 | -27.41574 | 153.11098 | 430 ft | 143 kts | 25° |
| 2026-04-25 00:31 | -27.40684 | 153.11592 | 127 ft | 139 kts | 26° |
| 2026-04-25 00:31 | -27.39860 | 153.12060 | 20 ft | 122 kts | 26° |
| 2026-04-25 00:32 | -27.39381 | 153.12337 | 20 ft | 32 kts | 26° |
| 2026-04-25 00:32 | -27.39348 | 153.12356 | 18 ft | 2 kts | 27° |